createdAt,value
2018-12-08T00:01:12.347Z,7.75
2018-12-08T00:03:40.657Z,7.72
2018-12-08T00:06:08.963Z,7.69
2018-12-08T00:08:37.393Z,7.70
2018-12-08T00:11:05.937Z,7.43
2018-12-08T00:13:34.333Z,7.60
2018-12-08T00:16:02.841Z,7.44
2018-12-08T00:18:31.401Z,7.57
2018-12-08T00:20:59.706Z,7.32
2018-12-08T00:23:28.029Z,7.50
2018-12-08T00:25:56.350Z,7.51
2018-12-08T00:28:25.581Z,7.67
2018-12-08T00:31:11.836Z,7.41
2018-12-08T00:33:40.428Z,7.54
2018-12-08T00:36:08.727Z,7.51
2018-12-08T00:38:37.152Z,7.30
2018-12-08T00:41:05.536Z,7.66
2018-12-08T00:43:34.646Z,7.40
2018-12-08T00:46:02.957Z,7.33
2018-12-08T00:48:31.326Z,7.33
2018-12-08T00:51:00.342Z,7.64
2018-12-08T00:53:28.959Z,7.50
2018-12-08T00:55:57.398Z,7.75
2018-12-08T00:58:25.970Z,7.62
2018-12-08T01:00:54.322Z,7.60
2018-12-08T01:03:22.618Z,7.45
2018-12-08T01:05:50.965Z,7.69
2018-12-08T01:08:20.016Z,7.71
2018-12-08T01:10:48.317Z,7.47
2018-12-08T01:13:16.652Z,7.71
2018-12-08T01:15:45.175Z,7.34
2018-12-08T01:18:13.737Z,6.67
2018-12-08T01:20:42.045Z,7.09
2018-12-08T01:23:10.345Z,7.03
2018-12-08T01:25:38.771Z,7.33
2018-12-08T01:28:07.272Z,7.27
2018-12-08T01:30:35.789Z,7.27
2018-12-08T01:33:04.167Z,7.54
2018-12-08T01:35:32.468Z,7.39
2018-12-08T01:38:00.774Z,7.21
2018-12-08T01:40:29.173Z,7.47
2018-12-08T01:42:58.423Z,7.51
2018-12-08T01:45:26.889Z,7.71
2018-12-08T01:47:55.839Z,7.59
2018-12-08T01:50:24.174Z,7.64
2018-12-08T01:52:52.752Z,7.31
2018-12-08T01:55:21.455Z,7.43
2018-12-08T01:57:49.753Z,7.51
2018-12-08T02:00:18.049Z,7.66
2018-12-08T02:02:47.203Z,7.54
2018-12-08T02:05:15.611Z,7.45
2018-12-08T02:07:44.143Z,7.53
2018-12-08T02:10:12.677Z,7.51
2018-12-08T02:12:41.122Z,7.50
2018-12-08T02:15:09.473Z,7.45
2018-12-08T02:17:37.795Z,7.70
2018-12-08T02:20:06.269Z,7.60
2018-12-08T02:22:34.627Z,7.53
2018-12-08T02:25:03.246Z,7.44
2018-12-08T02:27:31.738Z,7.39
2018-12-08T02:30:00.024Z,7.62
2018-12-08T02:32:28.491Z,7.61
2018-12-08T02:34:57.162Z,7.30
2018-12-08T02:37:25.566Z,7.65
2018-12-08T02:39:54.021Z,7.34
2018-12-08T02:42:23.177Z,7.06
2018-12-08T02:44:51.504Z,7.28
2018-12-08T02:47:19.924Z,7.26
2018-12-08T02:49:48.412Z,7.46
2018-12-08T02:52:16.712Z,7.47
2018-12-08T02:54:45.111Z,7.49
2018-12-08T02:57:13.404Z,7.73
2018-12-08T02:59:41.729Z,7.72
2018-12-08T03:02:10.122Z,7.60
2018-12-08T03:04:38.532Z,7.43
2018-12-08T03:07:06.920Z,7.61
2018-12-08T03:09:35.450Z,7.51
2018-12-08T03:12:03.756Z,7.64
2018-12-08T03:14:32.020Z,7.63
2018-12-08T03:17:00.336Z,7.34
2018-12-08T03:19:28.665Z,7.25
2018-12-08T03:21:56.987Z,7.22
2018-12-08T03:24:25.403Z,7.47
2018-12-08T03:26:53.835Z,7.35
2018-12-08T03:29:22.173Z,7.29
2018-12-08T03:31:50.631Z,7.44
2018-12-08T03:34:18.954Z,7.10
2018-12-08T03:36:47.308Z,7.49
2018-12-08T03:39:16.457Z,7.34
2018-12-08T03:41:44.905Z,7.21
2018-12-08T03:44:13.211Z,7.55
2018-12-08T03:46:41.549Z,7.67
2018-12-08T03:49:10.030Z,7.60
2018-12-08T03:51:38.740Z,7.40
2018-12-08T03:54:07.060Z,7.59
2018-12-08T03:56:35.332Z,7.47
2018-12-08T03:59:03.649Z,7.80
2018-12-08T04:01:31.960Z,7.56
2018-12-08T04:04:00.314Z,7.56
2018-12-08T04:06:28.781Z,7.70
2018-12-08T04:08:57.261Z,7.89
2018-12-08T04:11:25.650Z,7.66
2018-12-08T04:13:53.956Z,7.80
2018-12-08T04:16:22.603Z,7.76
2018-12-08T04:18:51.335Z,7.68
2018-12-08T04:21:19.628Z,7.80
2018-12-08T04:23:47.980Z,7.74
2018-12-08T04:26:16.272Z,7.84
2018-12-08T04:28:44.706Z,7.43
2018-12-08T04:31:12.980Z,7.65
2018-12-08T04:33:42.139Z,7.73
2018-12-08T04:36:10.416Z,7.69
2018-12-08T04:38:39.261Z,7.79
2018-12-08T04:41:07.624Z,7.93
2018-12-08T04:43:35.954Z,7.95
2018-12-08T04:46:04.301Z,7.87
2018-12-08T04:48:33.209Z,7.94
2018-12-08T04:51:01.518Z,7.86
2018-12-08T04:53:35.067Z,7.87
2018-12-08T04:56:03.785Z,8.05
2018-12-08T04:58:32.070Z,8.10
2018-12-08T05:01:00.437Z,8.07
2018-12-08T05:03:28.723Z,8.04
2018-12-08T05:05:57.012Z,8.01
2018-12-08T05:08:26.108Z,8.00
2018-12-08T05:10:54.428Z,8.08
2018-12-08T05:13:22.679Z,8.03
2018-12-08T05:15:50.998Z,8.10
2018-12-08T05:18:19.302Z,8.04
2018-12-08T05:20:47.975Z,8.05
2018-12-08T05:23:16.333Z,8.02
2018-12-08T05:25:44.682Z,8.16
2018-12-08T05:28:12.977Z,8.07
2018-12-08T05:30:41.359Z,7.66
2018-12-08T05:33:09.882Z,7.34
2018-12-08T05:35:38.217Z,7.56
2018-12-08T05:38:06.634Z,7.37
2018-12-08T05:40:35.024Z,7.60
2018-12-08T05:43:03.533Z,7.47
2018-12-08T05:45:31.882Z,7.49
2018-12-08T05:48:00.182Z,7.62
2018-12-08T05:50:28.760Z,7.65
2018-12-08T05:52:57.058Z,7.65
2018-12-08T05:55:25.333Z,7.66
2018-12-08T05:57:53.722Z,7.54
2018-12-08T06:00:22.426Z,7.56
2018-12-08T06:02:50.936Z,7.60
2018-12-08T06:05:19.413Z,7.62
2018-12-08T06:07:48.205Z,7.77
2018-12-08T06:10:16.908Z,7.56
2018-12-08T06:12:45.153Z,7.75
2018-12-08T06:15:13.694Z,7.35
2018-12-08T06:17:41.996Z,7.69
2018-12-08T06:20:10.410Z,7.69
2018-12-08T06:22:38.715Z,7.50
2018-12-08T06:25:11.004Z,7.57
2018-12-08T06:27:45.620Z,7.25
2018-12-08T06:30:13.914Z,7.57
2018-12-08T06:32:42.217Z,7.63
2018-12-08T06:35:11.355Z,7.42
2018-12-08T06:37:39.640Z,7.28
2018-12-08T06:40:07.964Z,7.54
2018-12-08T06:42:36.329Z,7.42
2018-12-08T06:45:05.957Z,7.39
2018-12-08T06:47:34.425Z,7.45
2018-12-08T06:50:02.824Z,7.45
2018-12-08T06:52:31.113Z,7.53
2018-12-08T06:54:59.479Z,7.54
2018-12-08T06:57:27.794Z,7.53
2018-12-08T06:59:56.104Z,7.67
2018-12-08T07:02:24.401Z,7.62
2018-12-08T07:04:53.353Z,7.79
2018-12-08T07:07:21.686Z,7.68
2018-12-08T07:09:50.108Z,7.68
2018-12-08T07:12:18.648Z,7.83
2018-12-08T07:14:47.010Z,7.69
2018-12-08T07:17:15.315Z,7.71
2018-12-08T07:19:43.608Z,7.85
2018-12-08T07:22:11.921Z,7.77
2018-12-08T07:24:40.220Z,7.88
2018-12-08T07:27:08.538Z,7.66
2018-12-08T07:29:36.860Z,7.70
2018-12-08T07:32:05.143Z,7.57
2018-12-08T07:34:34.063Z,7.67
2018-12-08T07:37:02.392Z,7.72
2018-12-08T07:39:31.645Z,7.59
2018-12-08T07:41:59.935Z,7.72
2018-12-08T07:44:28.984Z,7.56
2018-12-08T07:46:58.304Z,7.71
2018-12-08T07:49:27.468Z,7.53
2018-12-08T07:51:55.828Z,7.47
2018-12-08T07:54:25.053Z,7.54
2018-12-08T07:56:53.368Z,7.53
2018-12-08T07:59:21.748Z,7.45
2018-12-08T08:01:50.055Z,7.33
2018-12-08T08:04:18.357Z,7.47
2018-12-08T08:06:46.693Z,7.58
2018-12-08T08:09:15.226Z,7.57
2018-12-08T08:11:43.540Z,7.57
2018-12-08T08:14:11.828Z,7.49
2018-12-08T08:16:40.137Z,7.36
2018-12-08T08:19:08.421Z,7.41
2018-12-08T08:21:36.788Z,7.47
2018-12-08T08:24:05.117Z,7.37
2018-12-08T08:26:33.533Z,7.40
2018-12-08T08:29:01.877Z,7.39
2018-12-08T08:31:30.306Z,7.53
2018-12-08T08:33:58.632Z,7.57
2018-12-08T08:36:26.968Z,7.60
2018-12-08T08:38:55.242Z,7.34
2018-12-08T08:41:24.594Z,7.40
2018-12-08T08:43:52.904Z,7.57
2018-12-08T08:46:21.177Z,7.49
2018-12-08T08:48:49.528Z,7.56
2018-12-08T08:51:18.315Z,7.51
2018-12-08T08:53:46.642Z,7.59
2018-12-08T08:56:15.136Z,7.46
2018-12-08T08:58:43.476Z,7.43
2018-12-08T09:01:11.883Z,7.63
2018-12-08T09:03:40.448Z,7.22
2018-12-08T09:06:08.751Z,7.41
2018-12-08T09:08:37.058Z,7.27
2018-12-08T09:11:05.605Z,7.25
2018-12-08T09:13:33.901Z,7.36
2018-12-08T09:16:03.152Z,7.50
2018-12-08T09:18:31.989Z,7.36
2018-12-08T09:21:00.395Z,7.33
2018-12-08T09:23:28.698Z,7.51
2018-12-08T09:25:57.797Z,7.35
2018-12-08T09:28:26.229Z,7.49
2018-12-08T09:30:54.521Z,7.39
2018-12-08T09:33:22.830Z,7.50
2018-12-08T09:35:51.576Z,7.60
2018-12-08T09:38:19.893Z,7.51
2018-12-08T09:40:48.161Z,7.53
2018-12-08T09:43:16.482Z,7.46
2018-12-08T09:45:44.833Z,7.56
2018-12-08T09:48:13.161Z,7.40
2018-12-08T09:50:41.472Z,7.30
2018-12-08T09:53:15.144Z,7.36
2018-12-08T09:55:43.519Z,7.49
2018-12-08T09:58:11.844Z,7.37
2018-12-08T10:00:40.334Z,7.53
2018-12-08T10:03:08.664Z,7.18
2018-12-08T10:05:36.976Z,7.36
2018-12-08T10:08:05.294Z,7.52
2018-12-08T10:10:33.644Z,7.24
2018-12-08T10:13:01.946Z,7.31
2018-12-08T10:15:30.325Z,7.11
2018-12-08T10:17:58.680Z,7.27
2018-12-08T10:20:27.036Z,7.30
2018-12-08T10:22:55.432Z,7.34
2018-12-08T10:25:23.758Z,7.31
2018-12-08T10:27:52.639Z,7.48
2018-12-08T10:30:20.982Z,7.40
2018-12-08T10:32:49.379Z,7.55
2018-12-08T10:35:17.755Z,7.46
2018-12-08T10:37:46.122Z,7.55
2018-12-08T10:40:14.743Z,7.44
2018-12-08T10:42:43.028Z,7.46
2018-12-08T10:45:11.804Z,7.41
2018-12-08T10:47:40.163Z,7.62
2018-12-08T10:50:08.904Z,7.45
2018-12-08T10:52:37.179Z,7.40
2018-12-08T10:55:06.141Z,7.58
2018-12-08T10:57:34.494Z,7.51
2018-12-08T11:00:03.054Z,7.61
2018-12-08T11:02:39.811Z,7.60
2018-12-08T11:05:08.564Z,7.45
2018-12-08T11:07:36.993Z,7.61
2018-12-08T11:10:05.821Z,7.50
2018-12-08T11:12:34.154Z,7.64
2018-12-08T11:15:02.512Z,7.59
2018-12-08T11:17:30.941Z,7.63
2018-12-08T11:19:59.397Z,7.74
2018-12-08T11:22:27.734Z,7.67
2018-12-08T11:24:56.163Z,7.61
2018-12-08T11:27:24.473Z,7.62
2018-12-08T11:29:52.824Z,7.71
2018-12-08T11:32:21.142Z,7.86
2018-12-08T11:34:49.467Z,7.86
2018-12-08T11:37:18.085Z,7.93
2018-12-08T11:39:46.413Z,7.85
2018-12-08T11:42:14.919Z,7.94
2018-12-08T11:44:43.688Z,7.87
2018-12-08T11:47:12.089Z,7.94
2018-12-08T11:49:40.388Z,7.90
2018-12-08T11:52:08.877Z,7.90
2018-12-08T11:54:38.151Z,7.86
2018-12-08T11:57:06.837Z,7.94
2018-12-08T11:59:35.146Z,7.83
2018-12-08T12:02:04.171Z,8.02
2018-12-08T12:04:32.658Z,7.92
2018-12-08T12:07:00.970Z,7.73
2018-12-08T12:09:29.501Z,7.88
2018-12-08T12:11:57.838Z,7.96
2018-12-08T12:14:45.295Z,7.94
2018-12-08T12:17:13.587Z,7.99
2018-12-08T12:19:41.891Z,8.05
2018-12-08T12:22:10.194Z,8.35
2018-12-08T12:24:38.532Z,8.11
2018-12-08T12:27:06.809Z,8.26
2018-12-08T12:29:35.117Z,8.36
2018-12-08T12:32:03.424Z,8.27
2018-12-08T12:34:31.848Z,8.44
2018-12-08T12:37:00.240Z,8.27
2018-12-08T12:39:28.573Z,8.52
2018-12-08T12:41:57.191Z,8.59
2018-12-08T12:44:25.555Z,8.37
2018-12-08T12:46:53.953Z,8.37
2018-12-08T12:49:22.283Z,8.38
2018-12-08T12:51:50.873Z,8.69
2018-12-08T12:54:19.722Z,8.70
2018-12-08T12:56:48.176Z,8.61
2018-12-08T12:59:16.623Z,8.67
2018-12-08T13:01:45.051Z,8.65
2018-12-08T13:04:13.486Z,8.62
2018-12-08T13:06:42.011Z,8.59
2018-12-08T13:09:10.456Z,8.63
2018-12-08T13:11:38.778Z,8.70
2018-12-08T13:14:07.205Z,8.50
2018-12-08T13:16:35.514Z,8.48
2018-12-08T13:19:03.891Z,8.39
2018-12-08T13:21:32.850Z,8.41
2018-12-08T13:24:01.116Z,8.48
2018-12-08T13:26:29.474Z,8.53
2018-12-08T13:28:57.835Z,8.38
2018-12-08T13:31:26.169Z,8.32
2018-12-08T13:33:54.885Z,8.47
2018-12-08T13:36:23.340Z,8.73
2018-12-08T13:38:51.826Z,8.60
2018-12-08T13:41:20.115Z,8.50
2018-12-08T13:43:52.740Z,8.78
2018-12-08T13:46:21.044Z,8.61
2018-12-08T13:48:49.372Z,8.75
2018-12-08T13:51:18.151Z,8.84
2018-12-08T13:53:46.452Z,8.77
2018-12-08T13:56:14.922Z,8.89
2018-12-08T13:58:43.311Z,8.84
2018-12-08T14:01:11.625Z,8.95
2018-12-08T14:03:40.002Z,8.95
2018-12-08T14:06:08.325Z,8.92
2018-12-08T14:08:36.723Z,8.93
2018-12-08T14:11:05.054Z,8.95
2018-12-08T14:13:33.491Z,8.96
2018-12-08T14:16:01.889Z,8.89
2018-12-08T14:18:30.187Z,8.89
2018-12-08T14:20:58.509Z,8.93
2018-12-08T14:23:27.022Z,8.81
2018-12-08T14:25:55.349Z,8.80
2018-12-08T14:28:24.368Z,8.61
2018-12-08T14:30:53.523Z,8.73
2018-12-08T14:33:21.879Z,8.71
2018-12-08T14:35:50.196Z,8.68
2018-12-08T14:38:19.037Z,8.65
2018-12-08T14:40:47.435Z,8.81
2018-12-08T14:43:15.735Z,8.75
2018-12-08T14:45:44.286Z,8.74
2018-12-08T14:48:12.673Z,8.73
2018-12-08T14:50:41.232Z,8.86
2018-12-08T14:53:09.536Z,8.67
2018-12-08T14:55:37.969Z,8.77
2018-12-08T14:58:06.278Z,8.67
2018-12-08T15:00:35.318Z,8.63
2018-12-08T15:03:03.746Z,8.69
2018-12-08T15:05:32.420Z,8.54
2018-12-08T15:08:00.957Z,8.46
2018-12-08T15:10:29.374Z,8.58
2018-12-08T15:12:57.676Z,8.58
2018-12-08T15:15:26.299Z,8.52
2018-12-08T15:17:54.863Z,8.51
2018-12-08T15:20:23.159Z,8.40
2018-12-08T15:22:51.595Z,8.36
2018-12-08T15:25:19.912Z,8.48
2018-12-08T15:27:48.272Z,8.35
2018-12-08T15:30:16.655Z,8.36
2018-12-08T15:32:45.040Z,8.40
2018-12-08T15:35:13.571Z,8.46
2018-12-08T15:37:41.873Z,8.56
2018-12-08T15:40:10.466Z,8.61
2018-12-08T15:42:39.100Z,8.49
2018-12-08T15:45:09.559Z,8.51
2018-12-08T15:47:37.891Z,8.47
2018-12-08T15:50:08.046Z,8.50
2018-12-08T15:52:36.585Z,8.63
2018-12-08T15:55:05.391Z,8.61
2018-12-08T15:57:34.405Z,8.49
2018-12-08T16:00:03.916Z,8.37
2018-12-08T16:02:32.264Z,8.56
2018-12-08T16:05:01.457Z,8.57
2018-12-08T16:07:30.764Z,8.47
2018-12-08T16:09:59.442Z,8.54
2018-12-08T16:12:27.829Z,8.41
2018-12-08T16:14:56.159Z,8.35
2018-12-08T16:17:24.575Z,8.43
2018-12-08T16:19:52.970Z,8.49
2018-12-08T16:22:21.355Z,8.49
2018-12-08T16:24:50.208Z,8.57
2018-12-08T16:27:18.583Z,8.55
2018-12-08T16:29:46.986Z,8.53
2018-12-08T16:32:16.279Z,8.49
2018-12-08T16:34:44.584Z,8.67
2018-12-08T16:37:13.031Z,8.50
2018-12-08T16:39:41.398Z,8.72
2018-12-08T16:42:09.785Z,8.62
2018-12-08T16:44:38.804Z,8.43
2018-12-08T16:47:07.193Z,8.67
2018-12-08T16:49:35.686Z,8.56
2018-12-08T16:52:04.097Z,8.73
2018-12-08T16:54:32.492Z,8.72
2018-12-08T16:57:00.776Z,8.50
2018-12-08T16:59:29.108Z,8.70
2018-12-08T17:01:57.413Z,8.66
2018-12-08T17:04:26.132Z,8.61
2018-12-08T17:06:55.445Z,8.72
2018-12-08T17:09:23.786Z,8.57
2018-12-08T17:11:52.110Z,8.52
2018-12-08T17:14:20.474Z,8.46
2018-12-08T17:16:49.231Z,8.61
2018-12-08T17:19:17.641Z,8.48
2018-12-08T17:21:45.920Z,8.33
2018-12-08T17:24:14.371Z,8.42
2018-12-08T17:26:43.149Z,8.39
2018-12-08T17:29:11.551Z,8.30
2018-12-08T17:31:40.848Z,8.38
2018-12-08T17:34:09.251Z,8.31
2018-12-08T17:36:38.399Z,8.18
2018-12-08T17:39:06.879Z,8.37
2018-12-08T17:41:35.176Z,8.35
2018-12-08T17:44:03.922Z,8.37
2018-12-08T17:46:32.288Z,8.57
2018-12-08T17:49:00.795Z,8.57
2018-12-08T17:51:29.103Z,8.63
2018-12-08T17:53:59.651Z,8.58
2018-12-08T17:56:28.023Z,8.57
2018-12-08T17:58:57.244Z,8.70
2018-12-08T18:01:25.803Z,8.68
2018-12-08T18:03:54.262Z,8.74
2018-12-08T18:06:22.946Z,8.67
2018-12-08T18:08:51.599Z,8.67
2018-12-08T18:11:19.939Z,8.63
2018-12-08T18:13:48.581Z,8.59
2018-12-08T18:16:17.188Z,8.62
2018-12-08T18:18:45.740Z,8.69
2018-12-08T18:21:14.370Z,8.70
2018-12-08T18:23:42.804Z,8.57
2018-12-08T18:26:11.116Z,8.68
2018-12-08T18:28:39.428Z,8.84
2018-12-08T18:31:07.738Z,8.84
2018-12-08T18:33:36.583Z,8.73
2018-12-08T18:36:05.001Z,8.78
2018-12-08T18:38:33.397Z,8.83
2018-12-08T18:41:01.724Z,8.81
2018-12-08T18:43:30.155Z,8.80
2018-12-08T18:45:58.709Z,8.83
2018-12-08T18:48:27.074Z,8.83
2018-12-08T18:50:55.387Z,8.86
2018-12-08T18:53:23.812Z,8.98
2018-12-08T18:55:52.126Z,8.93
2018-12-08T18:58:21.048Z,8.91
2018-12-08T19:00:49.633Z,9.05
2018-12-08T19:03:18.220Z,9.01
2018-12-08T19:05:46.500Z,9.15
2018-12-08T19:08:14.800Z,9.10
2018-12-08T19:10:43.155Z,9.28
2018-12-08T19:13:11.465Z,9.07
2018-12-08T19:15:39.760Z,9.02
2018-12-08T19:18:08.143Z,8.88
2018-12-08T19:20:36.436Z,8.78
2018-12-08T19:23:04.763Z,8.72
2018-12-08T19:25:33.937Z,8.69
2018-12-08T19:28:02.258Z,8.67
2018-12-08T19:30:31.015Z,8.83
2018-12-08T19:32:59.445Z,8.71
2018-12-08T19:35:27.725Z,8.76
2018-12-08T19:37:56.070Z,8.77
2018-12-08T19:40:25.340Z,8.82
2018-12-08T19:42:53.664Z,8.79
2018-12-08T19:45:22.019Z,8.71
2018-12-08T19:47:50.370Z,8.83
2018-12-08T19:50:18.779Z,8.59
2018-12-08T19:52:47.242Z,8.70
2018-12-08T19:55:15.613Z,8.71
2018-12-08T19:57:43.909Z,8.68
2018-12-08T20:00:12.300Z,8.80
2018-12-08T20:02:40.665Z,8.76
2018-12-08T20:05:09.073Z,8.66
2018-12-08T20:07:37.553Z,8.63
2018-12-08T20:10:07.844Z,8.51
2018-12-08T20:12:36.168Z,8.67
2018-12-08T20:15:06.718Z,8.78
2018-12-08T20:17:35.054Z,8.67
2018-12-08T20:20:03.987Z,8.76
2018-12-08T20:22:32.320Z,8.87
2018-12-08T20:25:00.665Z,8.87
2018-12-08T20:27:28.999Z,8.87
2018-12-08T20:29:57.368Z,8.84
2018-12-08T20:35:00.363Z,8.90
2018-12-08T20:37:28.689Z,8.93
2018-12-08T20:39:57.583Z,8.85
2018-12-08T20:42:25.946Z,8.90
2018-12-08T20:44:54.344Z,8.92
2018-12-08T20:47:22.684Z,8.81
2018-12-08T20:49:51.019Z,8.96
2018-12-08T20:52:19.378Z,8.86
2018-12-08T20:54:47.718Z,8.76
2018-12-08T20:57:16.100Z,8.86
2018-12-08T20:59:44.447Z,8.97
2018-12-08T21:02:12.740Z,8.94
2018-12-08T21:04:41.117Z,8.86
2018-12-08T21:07:09.488Z,8.90
2018-12-08T21:09:37.796Z,8.92
2018-12-08T21:12:06.748Z,8.93
2018-12-08T21:14:35.171Z,8.88
2018-12-08T21:17:03.680Z,8.95
2018-12-08T21:19:31.988Z,8.89
2018-12-08T21:22:01.201Z,9.00
2018-12-08T21:24:29.563Z,8.94
2018-12-08T21:26:58.349Z,8.89
2018-12-08T21:29:26.631Z,8.92
2018-12-08T21:31:54.986Z,8.90
2018-12-08T21:34:23.326Z,8.94
2018-12-08T21:36:51.622Z,8.93
2018-12-08T21:39:19.942Z,8.89
2018-12-08T21:41:48.336Z,8.88
2018-12-08T21:44:16.833Z,9.03
2018-12-08T21:46:45.151Z,8.98
2018-12-08T21:49:14.390Z,9.02
2018-12-08T21:51:42.721Z,8.96
2018-12-08T21:54:11.053Z,8.97
2018-12-08T21:56:39.353Z,9.02
2018-12-08T21:59:07.663Z,9.12
2018-12-08T22:01:36.100Z,9.06
2018-12-08T22:04:04.484Z,9.02
2018-12-08T22:06:32.942Z,9.14
2018-12-08T22:09:01.346Z,9.13
2018-12-08T22:11:29.678Z,9.22
2018-12-08T22:13:57.988Z,9.06
2018-12-08T22:16:26.316Z,9.04
2018-12-08T22:18:54.627Z,9.20
2018-12-08T22:21:22.944Z,9.24
2018-12-08T22:23:51.286Z,9.17
2018-12-08T22:26:19.602Z,9.13
2018-12-08T22:28:48.072Z,9.22
2018-12-08T22:31:16.343Z,9.14
2018-12-08T22:33:44.745Z,9.13
2018-12-08T22:36:13.039Z,9.32
2018-12-08T22:38:41.338Z,9.38
2018-12-08T22:41:09.630Z,9.31
2018-12-08T22:43:38.971Z,9.23
2018-12-08T22:46:08.182Z,9.31
2018-12-08T22:48:37.292Z,9.39
2018-12-08T22:51:05.972Z,9.23
2018-12-08T22:53:34.458Z,9.31
2018-12-08T22:56:07.332Z,9.31
2018-12-08T22:58:35.701Z,9.35
2018-12-08T23:01:04.466Z,9.27
2018-12-08T23:03:32.828Z,9.38
2018-12-08T23:06:01.431Z,9.55
2018-12-08T23:08:29.882Z,9.28
2018-12-08T23:10:58.188Z,9.40
2018-12-08T23:13:26.495Z,9.42
2018-12-08T23:15:54.916Z,9.33
2018-12-08T23:18:23.226Z,9.33
2018-12-08T23:20:52.100Z,9.31
2018-12-08T23:23:20.596Z,9.21
2018-12-08T23:25:49.048Z,9.11
2018-12-08T23:28:17.494Z,9.25
2018-12-08T23:30:46.150Z,9.14
2018-12-08T23:33:14.433Z,9.12
2018-12-08T23:35:43.330Z,9.03
2018-12-08T23:38:12.694Z,9.00
2018-12-08T23:40:40.987Z,9.00
2018-12-08T23:43:10.216Z,8.86
2018-12-08T23:45:38.537Z,8.91
2018-12-08T23:48:06.846Z,9.06
2018-12-08T23:50:35.156Z,9.06
2018-12-08T23:53:03.529Z,9.19
2018-12-08T23:55:32.721Z,8.94
2018-12-08T23:58:01.540Z,9.55
